PWSweather.com
Personal Weather Stations
Station Observations
UWIDEPER1
Brown County, Depere, WI 54115

Brown CountyDepere, WI 54115

Lat: 44.44, Lon: -88.05

Elevation: 610

Station Type: Acurite 5in1

www.depereweather.com

High Low Average
Temperature 70.9°F21.6°F 35.4°F1.9°F 52.4°F11.3°F
Dew Point 42.8°F6.0°F 30.8°F-0.7°F 36.2°F2.3°F
Winds 9.2 mph NNE14.8 mph NNE Calm Calm 2.6 mph 4.2 mph
Wind Gusts 11.5 mph18.5 mph -- 3.1 mph5.0 mph
Humidity 85% 34% 57%
Pressure 30.13 in1020.30 in 30.00 in1015.90 in -
Precipitation 0.00 in0.00 in - -
Hour Temp Dew Point Humidity Winds Wind Gusts Pressure Precip Precip Rate Daily Precip Total
12:00 AM 44.8°F7.1°C 32.9°F0.5°C 63% Calm Calm 1.2 mph1.9 kmh 30.11 in1019.6 mb - 0.00 in0.0 mm 0.00 in0.0 mm
12:10 AM 44.8°F7.1°C 32.1°F0.1°C 61% Calm Calm -- 30.11 in1019.6 mb - 0.00 in0.0 mm 0.00 in0.0 mm
12:15 AM 44.4°F6.9°C 32.6°F0.3°C 63% Calm Calm -- 30.11 in1019.6 mb - 0.00 in0.0 mm 0.00 in0.0 mm
12:20 AM 44.4°F6.9°C 32.6°F0.3°C 63% Calm Calm -- 30.11 in1019.6 mb - 0.00 in0.0 mm 0.00 in0.0 mm
12:25 AM 44.8°F7.1°C 32.9°F0.5°C 63% Calm Calm 2.3 mph3.7 kmh 30.12 in1020.0 mb - 0.00 in0.0 mm 0.00 in0.0 mm
12:30 AM 45.0°F7.2°C 33.9°F1.1°C 65% 2.3 mph E3.7 kmh E 3.5 mph5.6 kmh 30.11 in1019.6 mb - 0.00 in0.0 mm 0.00 in0.0 mm
12:35 AM 45.0°F7.2°C 33.1°F0.6°C 63% 1.2 mph WNW1.9 kmh WNW 2.3 mph3.7 kmh 30.12 in1020.0 mb - 0.00 in0.0 mm 0.00 in0.0 mm
12:40 AM 45.0°F7.2°C 33.1°F0.6°C 63% 1.2 mph WNW1.9 kmh WNW 2.3 mph3.7 kmh 30.12 in1020.0 mb - 0.00 in0.0 mm 0.00 in0.0 mm
12:45 AM 44.8°F7.1°C 32.9°F0.5°C 63% Calm Calm -- 30.12 in1020.0 mb - 0.00 in0.0 mm 0.00 in0.0 mm
12:50 AM 44.6°F7.0°C 32.8°F0.4°C 63% Calm Calm -- 30.11 in1019.6 mb - 0.00 in0.0 mm 0.00 in0.0 mm
12:55 AM 44.6°F7.0°C 32.8°F0.4°C 63% Calm Calm -- 30.12 in1020.0 mb - 0.00 in0.0 mm 0.00 in0.0 mm
01:00 AM 44.4°F6.9°C 31.8°F-0.1°C 61% Calm Calm -- 30.12 in1020.0 mb - 0.00 in0.0 mm 0.00 in0.0 mm
01:10 AM 44.2°F6.8°C 31.6°F-0.2°C 61% Calm Calm -- 30.11 in1019.6 mb - 0.00 in0.0 mm 0.00 in0.0 mm
01:15 AM 44.1°F6.7°C 31.5°F-0.3°C 61% Calm Calm -- 30.12 in1020.0 mb - 0.00 in0.0 mm 0.00 in0.0 mm
01:20 AM 43.9°F6.6°C 32.1°F0.1°C 63% Calm Calm -- 30.12 in1020.0 mb - 0.00 in0.0 mm 0.00 in0.0 mm
01:25 AM 43.5°F6.4°C 31.8°F-0.1°C 63% Calm Calm -- 30.11 in1019.6 mb - 0.00 in0.0 mm 0.00 in0.0 mm
01:30 AM 43.3°F6.3°C 32.7°F0.4°C 66% Calm Calm -- 30.11 in1019.6 mb - 0.00 in0.0 mm 0.00 in0.0 mm
01:35 AM 43.3°F6.3°C 32.7°F0.4°C 66% Calm Calm -- 30.11 in1019.6 mb - 0.00 in0.0 mm 0.00 in0.0 mm
01:40 AM 43.2°F6.2°C 32.6°F0.3°C 66% Calm Calm -- 30.11 in1019.6 mb - 0.00 in0.0 mm 0.00 in0.0 mm
01:45 AM 43.2°F6.2°C 32.6°F0.3°C 66% Calm Calm -- 30.11 in1019.6 mb - 0.00 in0.0 mm 0.00 in0.0 mm
01:50 AM 42.6°F5.9°C 32.0°F0.0°C 66% Calm Calm -- 30.10 in1019.3 mb - 0.00 in0.0 mm 0.00 in0.0 mm
01:55 AM 42.4°F5.8°C 33.0°F0.6°C 69% Calm Calm -- 30.11 in1019.6 mb - 0.00 in0.0 mm 0.00 in0.0 mm
02:00 AM 42.4°F5.8°C 33.0°F0.6°C 69% Calm Calm -- 30.11 in1019.6 mb - 0.00 in0.0 mm 0.00 in0.0 mm
02:10 AM 42.4°F5.8°C 33.3°F0.7°C 70% Calm Calm -- 30.11 in1019.6 mb - 0.00 in0.0 mm 0.00 in0.0 mm
02:15 AM 42.4°F5.8°C 33.3°F0.7°C 70% Calm Calm -- 30.11 in1019.6 mb - 0.00 in0.0 mm 0.00 in0.0 mm
02:20 AM 42.4°F5.8°C 33.3°F0.7°C 70% Calm Calm -- 30.10 in1019.3 mb - 0.00 in0.0 mm 0.00 in0.0 mm
02:25 AM 42.4°F5.8°C 33.3°F0.7°C 70% Calm Calm -- 30.11 in1019.6 mb - 0.00 in0.0 mm 0.00 in0.0 mm
02:30 AM 42.3°F5.7°C 33.2°F0.7°C 70% Calm Calm -- 30.11 in1019.6 mb - 0.00 in0.0 mm 0.00 in0.0 mm
02:35 AM 42.3°F5.7°C 33.2°F0.7°C 70% Calm Calm -- 30.11 in1019.6 mb - 0.00 in0.0 mm 0.00 in0.0 mm
02:40 AM 42.3°F5.7°C 33.5°F0.8°C 71% Calm Calm -- 30.11 in1019.6 mb - 0.00 in0.0 mm 0.00 in0.0 mm
02:45 AM 42.1°F5.6°C 33.4°F0.8°C 71% Calm Calm -- 30.11 in1019.6 mb - 0.00 in0.0 mm 0.00 in0.0 mm
02:50 AM 42.1°F5.6°C 34.0°F1.1°C 73% Calm Calm -- 30.11 in1019.6 mb - 0.00 in0.0 mm 0.00 in0.0 mm
02:55 AM 41.9°F5.5°C 33.9°F1.1°C 73% Calm Calm -- 30.11 in1019.6 mb - 0.00 in0.0 mm 0.00 in0.0 mm
03:00 AM 41.8°F5.4°C 34.1°F1.2°C 74% Calm Calm -- 30.11 in1019.6 mb - 0.00 in0.0 mm 0.00 in0.0 mm
03:10 AM 41.6°F5.3°C 34.3°F1.3°C 75% Calm Calm -- 30.11 in1019.6 mb - 0.00 in0.0 mm 0.00 in0.0 mm
03:15 AM 41.5°F5.3°C 34.2°F1.2°C 75% Calm Calm -- 30.11 in1019.6 mb - 0.00 in0.0 mm 0.00 in0.0 mm
03:20 AM 41.4°F5.2°C 34.0°F1.1°C 75% Calm Calm -- 30.11 in1019.6 mb - 0.00 in0.0 mm 0.00 in0.0 mm
03:25 AM 41.4°F5.2°C 34.0°F1.1°C 75% Calm Calm -- 30.11 in1019.6 mb - 0.00 in0.0 mm 0.00 in0.0 mm
03:30 AM 41.0°F5.0°C 34.0°F1.1°C 76% Calm Calm -- 30.11 in1019.6 mb - 0.00 in0.0 mm 0.00 in0.0 mm
03:35 AM 40.8°F4.9°C 33.8°F1.0°C 76% 1.2 mph NE1.9 kmh NE -- 30.11 in1019.6 mb - 0.00 in0.0 mm 0.00 in0.0 mm
03:40 AM 40.6°F4.8°C 33.7°F0.9°C 76% Calm Calm -- 30.11 in1019.6 mb - 0.00 in0.0 mm 0.00 in0.0 mm
03:45 AM 40.6°F4.8°C 33.7°F0.9°C 76% Calm Calm -- 30.11 in1019.6 mb - 0.00 in0.0 mm 0.00 in0.0 mm
03:50 AM 40.5°F4.7°C 33.5°F0.8°C 76% 1.2 mph NW1.9 kmh NW 1.2 mph1.9 kmh 30.11 in1019.6 mb - 0.00 in0.0 mm 0.00 in0.0 mm
03:55 AM 40.5°F4.7°C 33.5°F0.8°C 76% Calm Calm -- 30.11 in1019.6 mb - 0.00 in0.0 mm 0.00 in0.0 mm
04:00 AM 40.2°F4.6°C 33.2°F0.7°C 76% Calm Calm -- 30.10 in1019.3 mb - 0.00 in0.0 mm 0.00 in0.0 mm
04:10 AM 39.5°F4.2°C 32.5°F0.3°C 76% Calm Calm -- 30.11 in1019.6 mb - 0.00 in0.0 mm 0.00 in0.0 mm
04:15 AM 39.1°F3.9°C 32.2°F0.1°C 76% Calm Calm -- 30.10 in1019.3 mb - 0.00 in0.0 mm 0.00 in0.0 mm
04:20 AM 38.5°F3.6°C 32.2°F0.1°C 78% Calm Calm -- 30.10 in1019.3 mb - 0.00 in0.0 mm 0.00 in0.0 mm
04:25 AM 38.1°F3.4°C 31.9°F-0.1°C 78% Calm Calm -- 30.10 in1019.3 mb - 0.00 in0.0 mm 0.00 in0.0 mm
04:30 AM 37.9°F3.3°C 32.0°F0.0°C 79% Calm Calm -- 30.09 in1019.0 mb - 0.00 in0.0 mm 0.00 in0.0 mm
04:35 AM 37.8°F3.2°C 32.1°F0.1°C 80% Calm Calm -- 30.09 in1019.0 mb - 0.00 in0.0 mm 0.00 in0.0 mm
04:40 AM 37.6°F3.1°C 32.0°F0.0°C 80% Calm Calm -- 30.09 in1019.0 mb - 0.00 in0.0 mm 0.00 in0.0 mm
04:45 AM 37.6°F3.1°C 32.3°F0.2°C 81% Calm Calm -- 30.10 in1019.3 mb - 0.00 in0.0 mm 0.00 in0.0 mm
04:50 AM 37.6°F3.1°C 32.3°F0.2°C 81% Calm Calm -- 30.10 in1019.3 mb - 0.00 in0.0 mm 0.00 in0.0 mm
04:55 AM 37.5°F3.1°C 32.2°F0.1°C 81% Calm Calm -- 30.10 in1019.3 mb - 0.00 in0.0 mm 0.00 in0.0 mm
05:00 AM 37.0°F2.8°C 31.8°F-0.1°C 81% Calm Calm -- 30.09 in1019.0 mb - 0.00 in0.0 mm 0.00 in0.0 mm
05:10 AM 36.9°F2.7°C 31.6°F-0.2°C 81% Calm Calm -- 30.09 in1019.0 mb - 0.00 in0.0 mm 0.00 in0.0 mm
05:15 AM 36.4°F2.4°C 31.4°F-0.3°C 82% Calm Calm -- 30.10 in1019.3 mb - 0.00 in0.0 mm 0.00 in0.0 mm
05:20 AM 36.1°F2.3°C 31.5°F-0.3°C 83% Calm Calm -- 30.09 in1019.0 mb - 0.00 in0.0 mm 0.00 in0.0 mm
05:25 AM 36.0°F2.2°C 31.3°F-0.4°C 83% Calm Calm -- 30.10 in1019.3 mb - 0.00 in0.0 mm 0.00 in0.0 mm
05:30 AM 35.8°F2.1°C 31.1°F-0.5°C 83% Calm Calm -- 30.10 in1019.3 mb - 0.00 in0.0 mm 0.00 in0.0 mm
05:35 AM 36.1°F2.3°C 32.0°F0.0°C 85% Calm Calm -- 30.10 in1019.3 mb - 0.00 in0.0 mm 0.00 in0.0 mm
05:40 AM 36.0°F2.2°C 31.9°F-0.1°C 85% Calm Calm -- 30.10 in1019.3 mb - 0.00 in0.0 mm 0.00 in0.0 mm
05:45 AM 35.4°F1.9°C 31.4°F-0.3°C 85% Calm Calm -- 30.10 in1019.3 mb - 0.00 in0.0 mm 0.00 in0.0 mm
05:50 AM 36.0°F2.2°C 31.9°F-0.1°C 85% Calm Calm -- 30.10 in1019.3 mb - 0.00 in0.0 mm 0.00 in0.0 mm
05:55 AM 35.4°F1.9°C 31.4°F-0.3°C 85% Calm Calm -- 30.10 in1019.3 mb - 0.00 in0.0 mm 0.00 in0.0 mm
06:00 AM 35.4°F1.9°C 31.4°F-0.3°C 85% Calm Calm -- 30.10 in1019.3 mb - 0.00 in0.0 mm 0.00 in0.0 mm
06:10 AM 35.4°F1.9°C 30.8°F-0.7°C 83% Calm Calm 1.2 mph1.9 kmh 30.10 in1019.3 mb - 0.00 in0.0 mm 0.00 in0.0 mm
06:15 AM 35.4°F1.9°C 30.8°F-0.7°C 83% Calm Calm -- 30.11 in1019.6 mb - 0.00 in0.0 mm 0.00 in0.0 mm
06:20 AM 35.4°F1.9°C 30.8°F-0.7°C 83% Calm Calm -- 30.12 in1020.0 mb - 0.00 in0.0 mm 0.00 in0.0 mm
06:25 AM 35.4°F1.9°C 30.8°F-0.7°C 83% Calm Calm 1.2 mph1.9 kmh 30.12 in1020.0 mb - 0.00 in0.0 mm 0.00 in0.0 mm
06:30 AM 35.8°F2.1°C 31.1°F-0.5°C 83% Calm Calm -- 30.12 in1020.0 mb - 0.00 in0.0 mm 0.00 in0.0 mm
06:35 AM 36.0°F2.2°C 31.3°F-0.4°C 83% Calm Calm -- 30.12 in1020.0 mb - 0.00 in0.0 mm 0.00 in0.0 mm
06:40 AM 36.2°F2.3°C 31.6°F-0.2°C 83% Calm Calm 2.3 mph3.7 kmh 30.12 in1020.0 mb - 0.00 in0.0 mm 0.00 in0.0 mm
06:45 AM 37.4°F3.0°C 32.7°F0.4°C 83% 1.2 mph WSW1.9 kmh WSW -- 30.12 in1020.0 mb - 0.00 in0.0 mm 0.00 in0.0 mm
06:50 AM 37.9°F3.3°C 33.2°F0.7°C 83% Calm Calm -- 30.12 in1020.0 mb - 0.00 in0.0 mm 0.00 in0.0 mm
06:55 AM 39.2°F4.0°C 33.9°F1.1°C 81% Calm Calm -- 30.12 in1020.0 mb - 0.00 in0.0 mm 0.00 in0.0 mm
07:00 AM 39.7°F4.3°C 33.8°F1.0°C 79% 1.2 mph W1.9 kmh W 1.2 mph1.9 kmh 30.13 in1020.3 mb - 0.00 in0.0 mm 0.00 in0.0 mm
07:10 AM 40.1°F4.5°C 33.8°F1.0°C 78% Calm Calm 2.3 mph3.7 kmh 30.13 in1020.3 mb - 0.00 in0.0 mm 0.00 in0.0 mm
07:15 AM 40.6°F4.8°C 33.6°F0.9°C 76% 1.2 mph WNW1.9 kmh WNW 1.2 mph1.9 kmh 30.13 in1020.3 mb - 0.00 in0.0 mm 0.00 in0.0 mm
07:20 AM 41.6°F5.3°C 34.2°F1.2°C 75% Calm Calm 1.2 mph1.9 kmh 30.13 in1020.3 mb - 0.00 in0.0 mm 0.00 in0.0 mm
07:25 AM 42.4°F5.8°C 35.0°F1.7°C 75% Calm Calm -- 30.12 in1020.0 mb - 0.00 in0.0 mm 0.00 in0.0 mm
07:30 AM 44.2°F6.8°C 35.8°F2.1°C 72% Calm Calm -- 30.12 in1020.0 mb - 0.00 in0.0 mm 0.00 in0.0 mm
07:35 AM 45.5°F7.5°C 35.9°F2.2°C 69% Calm Calm -- 30.11 in1019.6 mb - 0.00 in0.0 mm 0.00 in0.0 mm
07:40 AM 46.8°F8.2°C 36.0°F2.2°C 66% Calm Calm -- 30.12 in1020.0 mb - 0.00 in0.0 mm 0.00 in0.0 mm
07:45 AM 48.5°F9.2°C 36.0°F2.2°C 62% 1.2 mph N1.9 kmh N 2.3 mph3.7 kmh 30.12 in1020.0 mb - 0.00 in0.0 mm 0.00 in0.0 mm
07:50 AM 50.0°F10.0°C 36.2°F2.3°C 59% 1.2 mph NW1.9 kmh NW 2.3 mph3.7 kmh 30.12 in1020.0 mb - 0.00 in0.0 mm 0.00 in0.0 mm
07:55 AM 48.3°F9.1°C 35.5°F1.9°C 61% 1.2 mph W1.9 kmh W 2.3 mph3.7 kmh 30.12 in1020.0 mb - 0.00 in0.0 mm 0.00 in0.0 mm
08:00 AM 47.7°F8.7°C 35.7°F2.1°C 63% 2.3 mph NW3.7 kmh NW 3.5 mph5.6 kmh 30.12 in1020.0 mb - 0.00 in0.0 mm 0.00 in0.0 mm
08:10 AM 51.4°F10.8°C 37.5°F3.1°C 59% 1.2 mph NW1.9 kmh NW 2.3 mph3.7 kmh 30.12 in1020.0 mb - 0.00 in0.0 mm 0.00 in0.0 mm
08:15 AM 49.2°F9.6°C 36.3°F2.4°C 61% 1.2 mph W1.9 kmh W 3.5 mph5.6 kmh 30.12 in1020.0 mb - 0.00 in0.0 mm 0.00 in0.0 mm
08:20 AM 49.1°F9.5°C 36.6°F2.6°C 62% 2.3 mph NW3.7 kmh NW 2.3 mph3.7 kmh 30.12 in1020.0 mb - 0.00 in0.0 mm 0.00 in0.0 mm
08:25 AM 50.8°F10.4°C 37.0°F2.8°C 59% 1.2 mph N1.9 kmh N 2.3 mph3.7 kmh 30.12 in1020.0 mb - 0.00 in0.0 mm 0.00 in0.0 mm
08:30 AM 51.4°F10.8°C 37.1°F2.8°C 58% 1.2 mph WNW1.9 kmh WNW 3.5 mph5.6 kmh 30.12 in1020.0 mb - 0.00 in0.0 mm 0.00 in0.0 mm
08:35 AM 51.9°F11.1°C 36.2°F2.3°C 55% 2.3 mph NW3.7 kmh NW 2.3 mph3.7 kmh 30.12 in1020.0 mb - 0.00 in0.0 mm 0.00 in0.0 mm
08:40 AM 53.3°F11.8°C 37.5°F3.1°C 55% 2.3 mph NW3.7 kmh NW 3.5 mph5.6 kmh 30.12 in1020.0 mb - 0.00 in0.0 mm 0.00 in0.0 mm
08:45 AM 54.0°F12.2°C 37.8°F3.2°C 54% 2.3 mph W3.7 kmh W 3.5 mph5.6 kmh 30.12 in1020.0 mb - 0.00 in0.0 mm 0.00 in0.0 mm
08:50 AM 53.6°F12.0°C 36.4°F2.4°C 52% 2.3 mph NNW3.7 kmh NNW 3.5 mph5.6 kmh 30.12 in1020.0 mb - 0.00 in0.0 mm 0.00 in0.0 mm
08:55 AM 54.3°F12.4°C 36.0°F2.2°C 50% 2.3 mph NW3.7 kmh NW 3.5 mph5.6 kmh 30.12 in1020.0 mb - 0.00 in0.0 mm 0.00 in0.0 mm
09:00 AM 54.0°F12.2°C 35.7°F2.1°C 50% 3.5 mph WNW5.6 kmh WNW 3.5 mph5.6 kmh 30.11 in1019.6 mb - 0.00 in0.0 mm 0.00 in0.0 mm
09:10 AM 57.9°F14.4°C 38.3°F3.5°C 48% 2.3 mph W3.7 kmh W 2.3 mph3.7 kmh 30.11 in1019.6 mb - 0.00 in0.0 mm 0.00 in0.0 mm
09:15 AM 57.7°F14.3°C 38.7°F3.7°C 49% 1.2 mph NE1.9 kmh NE 2.3 mph3.7 kmh 30.11 in1019.6 mb - 0.00 in0.0 mm 0.00 in0.0 mm
09:20 AM 58.1°F14.5°C 39.6°F4.2°C 50% Calm Calm 1.2 mph1.9 kmh 30.11 in1019.6 mb - 0.00 in0.0 mm 0.00 in0.0 mm
09:25 AM 60.3°F15.7°C 39.9°F4.4°C 47% 2.3 mph N3.7 kmh N 2.3 mph3.7 kmh 30.10 in1019.3 mb - 0.00 in0.0 mm 0.00 in0.0 mm
09:30 AM 58.0°F14.4°C 39.5°F4.2°C 50% 2.3 mph SSE3.7 kmh SSE 2.3 mph3.7 kmh 30.10 in1019.3 mb - 0.00 in0.0 mm 0.00 in0.0 mm
09:35 AM 58.8°F14.9°C 39.2°F4.0°C 48% 2.3 mph E3.7 kmh E 3.5 mph5.6 kmh 30.10 in1019.3 mb - 0.00 in0.0 mm 0.00 in0.0 mm
09:40 AM 58.8°F14.9°C 39.2°F4.0°C 48% 2.3 mph NNE3.7 kmh NNE 3.5 mph5.6 kmh 30.10 in1019.3 mb - 0.00 in0.0 mm 0.00 in0.0 mm
09:45 AM 58.8°F14.9°C 38.1°F3.4°C 46% 1.2 mph SW1.9 kmh SW 1.2 mph1.9 kmh 30.10 in1019.3 mb - 0.00 in0.0 mm 0.00 in0.0 mm
09:50 AM 61.3°F16.3°C 39.2°F4.0°C 44% 2.3 mph SW3.7 kmh SW 3.5 mph5.6 kmh 30.10 in1019.3 mb - 0.00 in0.0 mm 0.00 in0.0 mm
09:55 AM 61.9°F16.6°C 37.9°F3.3°C 41% 2.3 mph NE3.7 kmh NE 3.5 mph5.6 kmh 30.10 in1019.3 mb - 0.00 in0.0 mm 0.00 in0.0 mm
10:00 AM 61.7°F16.5°C 37.1°F2.8°C 40% 3.5 mph ESE5.6 kmh ESE 3.5 mph5.6 kmh 30.10 in1019.3 mb - 0.00 in0.0 mm 0.00 in0.0 mm
10:10 AM 61.6°F16.4°C 35.0°F1.7°C 37% 2.3 mph NNE3.7 kmh NNE 2.3 mph3.7 kmh 30.09 in1019.0 mb - 0.00 in0.0 mm 0.00 in0.0 mm
10:15 AM 62.3°F16.8°C 37.0°F2.8°C 39% 2.3 mph NE3.7 kmh NE 4.6 mph7.4 kmh 30.09 in1019.0 mb - 0.00 in0.0 mm 0.00 in0.0 mm
10:20 AM 62.4°F16.9°C 35.8°F2.1°C 37% 2.3 mph N3.7 kmh N 3.5 mph5.6 kmh 30.09 in1019.0 mb - 0.00 in0.0 mm 0.00 in0.0 mm
10:25 AM 63.0°F17.2°C 36.9°F2.7°C 38% 2.3 mph N3.7 kmh N 3.5 mph5.6 kmh 30.09 in1019.0 mb - 0.00 in0.0 mm 0.00 in0.0 mm
10:30 AM 62.6°F17.0°C 36.6°F2.6°C 38% 3.5 mph W5.6 kmh W 2.3 mph3.7 kmh 30.09 in1019.0 mb - 0.00 in0.0 mm 0.00 in0.0 mm
10:35 AM 64.4°F18.0°C 37.5°F3.1°C 37% 2.3 mph NE3.7 kmh NE 3.5 mph5.6 kmh 30.09 in1019.0 mb - 0.00 in0.0 mm 0.00 in0.0 mm
10:40 AM 63.9°F17.7°C 37.1°F2.8°C 37% 2.3 mph NNE3.7 kmh NNE 2.3 mph3.7 kmh 30.09 in1019.0 mb - 0.00 in0.0 mm 0.00 in0.0 mm
10:45 AM 64.4°F18.0°C 37.6°F3.1°C 37% 3.5 mph NE5.6 kmh NE 3.5 mph5.6 kmh 30.09 in1019.0 mb - 0.00 in0.0 mm 0.00 in0.0 mm
10:50 AM 63.9°F17.7°C 37.1°F2.8°C 37% 3.5 mph NE5.6 kmh NE 3.5 mph5.6 kmh 30.09 in1019.0 mb - 0.00 in0.0 mm 0.00 in0.0 mm
10:55 AM 64.2°F17.9°C 37.4°F3.0°C 37% 2.3 mph NNW3.7 kmh NNW 3.5 mph5.6 kmh 30.08 in1018.6 mb - 0.00 in0.0 mm 0.00 in0.0 mm
11:00 AM 64.1°F17.8°C 38.6°F3.7°C 39% 2.3 mph NNW3.7 kmh NNW 3.5 mph5.6 kmh 30.08 in1018.6 mb - 0.00 in0.0 mm 0.00 in0.0 mm
11:10 AM 63.9°F17.7°C 37.1°F2.8°C 37% 3.5 mph NW5.6 kmh NW 3.5 mph5.6 kmh 30.09 in1019.0 mb - 0.00 in0.0 mm 0.00 in0.0 mm
11:15 AM 64.0°F17.8°C 37.2°F2.9°C 37% 3.5 mph NW5.6 kmh NW 3.5 mph5.6 kmh 30.09 in1019.0 mb - 0.00 in0.0 mm 0.00 in0.0 mm
11:20 AM 63.9°F17.7°C 37.1°F2.8°C 37% 3.5 mph WNW5.6 kmh WNW 6.9 mph11.1 kmh 30.09 in1019.0 mb - 0.00 in0.0 mm 0.00 in0.0 mm
11:25 AM 64.7°F18.2°C 38.5°F3.6°C 38% 3.5 mph N5.6 kmh N 5.8 mph9.3 kmh 30.07 in1018.3 mb - 0.00 in0.0 mm 0.00 in0.0 mm
11:30 AM 65.4°F18.6°C 38.5°F3.6°C 37% 3.5 mph NE5.6 kmh NE 2.3 mph3.7 kmh 30.07 in1018.3 mb - 0.00 in0.0 mm 0.00 in0.0 mm
11:35 AM 65.8°F18.8°C 38.8°F3.8°C 37% 3.5 mph NE5.6 kmh NE 3.5 mph5.6 kmh 30.07 in1018.3 mb - 0.00 in0.0 mm 0.00 in0.0 mm
11:40 AM 66.6°F19.2°C 39.5°F4.2°C 37% 3.5 mph NE5.6 kmh NE 3.5 mph5.6 kmh 30.07 in1018.3 mb - 0.00 in0.0 mm 0.00 in0.0 mm
11:45 AM 66.4°F19.1°C 39.3°F4.1°C 37% 3.5 mph NE5.6 kmh NE 3.5 mph5.6 kmh 30.07 in1018.3 mb - 0.00 in0.0 mm 0.00 in0.0 mm
11:50 AM 66.7°F19.3°C 39.6°F4.2°C 37% 2.3 mph NE3.7 kmh NE 3.5 mph5.6 kmh 30.07 in1018.3 mb - 0.00 in0.0 mm 0.00 in0.0 mm
11:55 AM 68.0°F20.0°C 42.8°F6.0°C 40% 3.5 mph SE5.6 kmh SE 3.5 mph5.6 kmh 30.07 in1018.3 mb - 0.00 in0.0 mm 0.00 in0.0 mm
12:00 PM 66.0°F18.9°C 40.3°F4.6°C 39% 3.5 mph SE5.6 kmh SE 3.5 mph5.6 kmh 30.07 in1018.3 mb - 0.00 in0.0 mm 0.00 in0.0 mm
12:10 PM 66.6°F19.2°C 39.5°F4.2°C 37% 3.5 mph N5.6 kmh N 3.5 mph5.6 kmh 30.07 in1018.3 mb - 0.00 in0.0 mm 0.00 in0.0 mm
12:15 PM 66.4°F19.1°C 40.0°F4.4°C 38% 2.3 mph NNE3.7 kmh NNE 3.5 mph5.6 kmh 30.06 in1017.9 mb - 0.00 in0.0 mm 0.00 in0.0 mm
12:20 PM 66.6°F19.2°C 39.5°F4.2°C 37% 3.5 mph NNE5.6 kmh NNE 3.5 mph5.6 kmh 30.07 in1018.3 mb - 0.00 in0.0 mm 0.00 in0.0 mm
12:25 PM 66.6°F19.2°C 39.5°F4.2°C 37% 2.3 mph E3.7 kmh E 2.3 mph3.7 kmh 30.06 in1017.9 mb - 0.00 in0.0 mm 0.00 in0.0 mm
12:30 PM 67.7°F19.8°C 39.0°F3.9°C 35% 2.3 mph E3.7 kmh E 4.6 mph7.4 kmh 30.06 in1017.9 mb - 0.00 in0.0 mm 0.00 in0.0 mm
12:35 PM 67.5°F19.7°C 40.3°F4.6°C 37% 3.5 mph E5.6 kmh E 3.5 mph5.6 kmh 30.06 in1017.9 mb - 0.00 in0.0 mm 0.00 in0.0 mm
12:40 PM 67.8°F19.9°C 39.2°F4.0°C 35% 2.3 mph NW3.7 kmh NW 2.3 mph3.7 kmh 30.06 in1017.9 mb - 0.00 in0.0 mm 0.00 in0.0 mm
12:45 PM 67.8°F19.9°C 39.2°F4.0°C 35% 2.3 mph NE3.7 kmh NE 3.5 mph5.6 kmh 30.06 in1017.9 mb - 0.00 in0.0 mm 0.00 in0.0 mm
12:50 PM 67.8°F19.9°C 40.5°F4.7°C 37% 2.3 mph NE3.7 kmh NE 2.3 mph3.7 kmh 30.06 in1017.9 mb - 0.00 in0.0 mm 0.00 in0.0 mm
12:55 PM 67.3°F19.6°C 38.7°F3.7°C 35% 3.5 mph ESE5.6 kmh ESE 3.5 mph5.6 kmh 30.05 in1017.6 mb - 0.00 in0.0 mm 0.00 in0.0 mm
01:00 PM 67.6°F19.8°C 40.4°F4.7°C 37% 2.3 mph E3.7 kmh E 2.3 mph3.7 kmh 30.05 in1017.6 mb - 0.00 in0.0 mm 0.00 in0.0 mm
01:10 PM 68.2°F20.1°C 39.5°F4.2°C 35% 2.3 mph ESE3.7 kmh ESE 3.5 mph5.6 kmh 30.05 in1017.6 mb - 0.00 in0.0 mm 0.00 in0.0 mm
01:15 PM 67.9°F19.9°C 39.2°F4.0°C 35% 3.5 mph N5.6 kmh N 4.6 mph7.4 kmh 30.05 in1017.6 mb - 0.00 in0.0 mm 0.00 in0.0 mm
01:20 PM 68.2°F20.1°C 39.5°F4.2°C 35% 3.5 mph NW5.6 kmh NW 3.5 mph5.6 kmh 30.05 in1017.6 mb - 0.00 in0.0 mm 0.00 in0.0 mm
01:25 PM 68.9°F20.5°C 41.5°F5.3°C 37% 3.5 mph ESE5.6 kmh ESE 3.5 mph5.6 kmh 30.04 in1017.3 mb - 0.00 in0.0 mm 0.00 in0.0 mm
01:30 PM 69.4°F20.8°C 40.6°F4.8°C 35% 3.5 mph N5.6 kmh N 3.5 mph5.6 kmh 30.05 in1017.6 mb - 0.00 in0.0 mm 0.00 in0.0 mm
01:35 PM 69.4°F20.8°C 40.5°F4.7°C 35% 2.3 mph NNE3.7 kmh NNE 3.5 mph5.6 kmh 30.05 in1017.6 mb - 0.00 in0.0 mm 0.00 in0.0 mm
01:40 PM 70.2°F21.2°C 41.3°F5.2°C 35% 2.3 mph NE3.7 kmh NE 3.5 mph5.6 kmh 30.05 in1017.6 mb - 0.00 in0.0 mm 0.00 in0.0 mm
01:45 PM 69.7°F20.9°C 42.3°F5.7°C 37% 3.5 mph WSW5.6 kmh WSW 2.3 mph3.7 kmh 30.05 in1017.6 mb - 0.00 in0.0 mm 0.00 in0.0 mm
01:50 PM 69.8°F21.0°C 41.6°F5.3°C 36% 3.5 mph NW5.6 kmh NW 4.6 mph7.4 kmh 30.05 in1017.6 mb - 0.00 in0.0 mm 0.00 in0.0 mm
01:55 PM 70.3°F21.3°C 41.3°F5.2°C 35% 3.5 mph NE5.6 kmh NE 4.6 mph7.4 kmh 30.04 in1017.3 mb - 0.00 in0.0 mm 0.00 in0.0 mm
02:00 PM 70.9°F21.6°C 41.1°F5.1°C 34% 3.5 mph SSE5.6 kmh SSE 2.3 mph3.7 kmh 30.04 in1017.3 mb - 0.00 in0.0 mm 0.00 in0.0 mm
02:10 PM 70.2°F21.2°C 41.2°F5.1°C 35% 4.6 mph NE7.4 kmh NE 4.6 mph7.4 kmh 30.04 in1017.3 mb - 0.00 in0.0 mm 0.00 in0.0 mm
02:15 PM 70.3°F21.3°C 40.6°F4.8°C 34% 4.6 mph NE7.4 kmh NE 3.5 mph5.6 kmh 30.04 in1017.3 mb - 0.00 in0.0 mm 0.00 in0.0 mm
02:20 PM 70.5°F21.4°C 41.5°F5.3°C 35% 3.5 mph NE5.6 kmh NE 3.5 mph5.6 kmh 30.04 in1017.3 mb - 0.00 in0.0 mm 0.00 in0.0 mm
02:25 PM 70.2°F21.2°C 40.5°F4.7°C 34% 3.5 mph ESE5.6 kmh ESE 3.5 mph5.6 kmh 30.04 in1017.3 mb - 0.00 in0.0 mm 0.00 in0.0 mm
02:30 PM 69.1°F20.6°C 39.5°F4.2°C 34% 3.5 mph ESE5.6 kmh ESE 2.3 mph3.7 kmh 30.04 in1017.3 mb - 0.00 in0.0 mm 0.00 in0.0 mm
02:35 PM 69.8°F21.0°C 40.1°F4.5°C 34% 3.5 mph NE5.6 kmh NE 4.6 mph7.4 kmh 30.03 in1016.9 mb - 0.00 in0.0 mm 0.00 in0.0 mm
02:40 PM 70.2°F21.2°C 41.2°F5.1°C 35% 2.3 mph N3.7 kmh N 3.5 mph5.6 kmh 30.04 in1017.3 mb - 0.00 in0.0 mm 0.00 in0.0 mm
02:45 PM 69.9°F21.1°C 41.0°F5.0°C 35% 3.5 mph N5.6 kmh N 3.5 mph5.6 kmh 30.03 in1016.9 mb - 0.00 in0.0 mm 0.00 in0.0 mm
02:50 PM 69.6°F20.9°C 40.7°F4.8°C 35% 3.5 mph NE5.6 kmh NE 4.6 mph7.4 kmh 30.03 in1016.9 mb - 0.00 in0.0 mm 0.00 in0.0 mm
02:55 PM 69.5°F20.8°C 40.6°F4.8°C 35% 3.5 mph NE5.6 kmh NE 3.5 mph5.6 kmh 30.03 in1016.9 mb - 0.00 in0.0 mm 0.00 in0.0 mm
03:00 PM 68.4°F20.2°C 39.6°F4.2°C 35% 3.5 mph NE5.6 kmh NE 4.6 mph7.4 kmh 30.03 in1016.9 mb - 0.00 in0.0 mm 0.00 in0.0 mm
03:10 PM 67.8°F19.9°C 40.6°F4.8°C 37% 2.3 mph NNE3.7 kmh NNE 3.5 mph5.6 kmh 30.03 in1016.9 mb - 0.00 in0.0 mm 0.00 in0.0 mm
03:15 PM 67.4°F19.7°C 40.2°F4.6°C 37% 2.3 mph N3.7 kmh N 3.5 mph5.6 kmh 30.02 in1016.6 mb - 0.00 in0.0 mm 0.00 in0.0 mm
03:20 PM 67.0°F19.4°C 39.8°F4.3°C 37% 3.5 mph NW5.6 kmh NW 3.5 mph5.6 kmh 30.02 in1016.6 mb - 0.00 in0.0 mm 0.00 in0.0 mm
03:25 PM 66.6°F19.2°C 40.9°F4.9°C 39% 3.5 mph NW5.6 kmh NW 5.8 mph9.3 kmh 30.02 in1016.6 mb - 0.00 in0.0 mm 0.00 in0.0 mm
03:30 PM 66.4°F19.1°C 40.7°F4.8°C 39% 4.6 mph NNW7.4 kmh NNW 3.5 mph5.6 kmh 30.02 in1016.6 mb - 0.00 in0.0 mm 0.00 in0.0 mm
03:35 PM 65.8°F18.8°C 40.8°F4.9°C 40% 4.6 mph NNW7.4 kmh NNW 6.9 mph11.1 kmh 30.02 in1016.6 mb - 0.00 in0.0 mm 0.00 in0.0 mm
03:40 PM 65.9°F18.8°C 40.9°F4.9°C 40% 4.6 mph NW7.4 kmh NW 5.8 mph9.3 kmh 30.02 in1016.6 mb - 0.00 in0.0 mm 0.00 in0.0 mm
03:45 PM 66.8°F19.3°C 41.0°F5.0°C 39% 4.6 mph NNW7.4 kmh NNW 4.6 mph7.4 kmh 30.02 in1016.6 mb - 0.00 in0.0 mm 0.00 in0.0 mm
03:50 PM 66.9°F19.4°C 41.1°F5.1°C 39% 4.6 mph WNW7.4 kmh WNW 4.6 mph7.4 kmh 30.02 in1016.6 mb - 0.00 in0.0 mm 0.00 in0.0 mm
03:55 PM 66.6°F19.2°C 41.5°F5.3°C 40% 4.6 mph N7.4 kmh N 4.6 mph7.4 kmh 30.02 in1016.6 mb - 0.00 in0.0 mm 0.00 in0.0 mm
04:00 PM 66.6°F19.2°C 41.5°F5.3°C 40% 4.6 mph N7.4 kmh N 6.9 mph11.1 kmh 30.02 in1016.6 mb - 0.00 in0.0 mm 0.00 in0.0 mm
04:10 PM 66.9°F19.4°C 41.8°F5.4°C 40% 3.5 mph NW5.6 kmh NW 5.8 mph9.3 kmh 30.01 in1016.3 mb - 0.00 in0.0 mm 0.00 in0.0 mm
04:15 PM 67.5°F19.7°C 42.3°F5.7°C 40% 3.5 mph NNE5.6 kmh NNE 5.8 mph9.3 kmh 30.02 in1016.6 mb - 0.00 in0.0 mm 0.00 in0.0 mm
04:20 PM 66.9°F19.4°C 41.8°F5.4°C 40% 4.6 mph NE7.4 kmh NE 4.6 mph7.4 kmh 30.02 in1016.6 mb - 0.00 in0.0 mm 0.00 in0.0 mm
04:25 PM 66.9°F19.4°C 41.8°F5.4°C 40% 3.5 mph NNE5.6 kmh NNE 3.5 mph5.6 kmh 30.01 in1016.3 mb - 0.00 in0.0 mm 0.00 in0.0 mm
04:30 PM 65.8°F18.8°C 40.8°F4.9°C 40% 2.3 mph NNE3.7 kmh NNE 2.3 mph3.7 kmh 30.01 in1016.3 mb - 0.00 in0.0 mm 0.00 in0.0 mm
04:35 PM 64.8°F18.2°C 40.5°F4.7°C 41% 3.5 mph N5.6 kmh N 2.3 mph3.7 kmh 30.02 in1016.6 mb - 0.00 in0.0 mm 0.00 in0.0 mm
04:40 PM 64.6°F18.1°C 40.3°F4.6°C 41% 3.5 mph NNE5.6 kmh NNE 4.6 mph7.4 kmh 30.02 in1016.6 mb - 0.00 in0.0 mm 0.00 in0.0 mm
04:45 PM 63.9°F17.7°C 40.9°F4.9°C 43% 3.5 mph NNE5.6 kmh NNE 4.6 mph7.4 kmh 30.02 in1016.6 mb - 0.00 in0.0 mm 0.00 in0.0 mm
04:50 PM 60.8°F16.0°C 39.3°F4.1°C 45% 5.8 mph NW9.3 kmh NW 4.6 mph7.4 kmh 30.01 in1016.3 mb - 0.00 in0.0 mm 0.00 in0.0 mm
04:55 PM 59.8°F15.4°C 38.4°F3.6°C 45% 4.6 mph N7.4 kmh N 4.6 mph7.4 kmh 30.02 in1016.6 mb - 0.00 in0.0 mm 0.00 in0.0 mm
05:00 PM 59.1°F15.1°C 36.7°F2.6°C 43% 5.8 mph N9.3 kmh N 8.1 mph13.0 kmh 30.02 in1016.6 mb - 0.00 in0.0 mm 0.00 in0.0 mm
05:10 PM 59.4°F15.2°C 37.4°F3.0°C 44% 3.5 mph NE5.6 kmh NE 3.5 mph5.6 kmh 30.01 in1016.3 mb - 0.00 in0.0 mm 0.00 in0.0 mm
05:15 PM 60.3°F15.7°C 36.4°F2.4°C 41% 3.5 mph NE5.6 kmh NE 3.5 mph5.6 kmh 30.01 in1016.3 mb - 0.00 in0.0 mm 0.00 in0.0 mm
05:20 PM 62.3°F16.8°C 38.3°F3.5°C 41% 2.3 mph NE3.7 kmh NE 3.5 mph5.6 kmh 30.00 in1015.9 mb - 0.00 in0.0 mm 0.00 in0.0 mm
05:25 PM 62.4°F16.9°C 38.4°F3.6°C 41% 3.5 mph NNE5.6 kmh NNE 3.5 mph5.6 kmh 30.01 in1016.3 mb - 0.00 in0.0 mm 0.00 in0.0 mm
05:30 PM 61.4°F16.3°C 38.0°F3.3°C 42% 3.5 mph N5.6 kmh N 4.6 mph7.4 kmh 30.02 in1016.6 mb - 0.00 in0.0 mm 0.00 in0.0 mm
05:35 PM 59.7°F15.4°C 38.3°F3.5°C 45% 4.6 mph N7.4 kmh N 4.6 mph7.4 kmh 30.02 in1016.6 mb - 0.00 in0.0 mm 0.00 in0.0 mm
05:40 PM 58.6°F14.8°C 39.4°F4.1°C 49% 4.6 mph N7.4 kmh N 8.1 mph13.0 kmh 30.00 in1015.9 mb - 0.00 in0.0 mm 0.00 in0.0 mm
05:45 PM 57.8°F14.3°C 39.7°F4.3°C 51% 4.6 mph NNW7.4 kmh NNW 6.9 mph11.1 kmh 30.02 in1016.6 mb - 0.00 in0.0 mm 0.00 in0.0 mm
05:50 PM 56.2°F13.4°C 40.2°F4.6°C 55% 5.8 mph NW9.3 kmh NW 8.1 mph13.0 kmh 30.02 in1016.6 mb - 0.00 in0.0 mm 0.00 in0.0 mm
05:55 PM 54.7°F12.6°C 40.2°F4.6°C 58% 4.6 mph E7.4 kmh E 3.5 mph5.6 kmh 30.02 in1016.6 mb - 0.00 in0.0 mm 0.00 in0.0 mm
06:00 PM 54.2°F12.3°C 40.2°F4.6°C 59% 6.9 mph NNE11.1 kmh NNE 9.2 mph14.8 kmh 30.02 in1016.6 mb - 0.00 in0.0 mm 0.00 in0.0 mm
06:10 PM 55.9°F13.3°C 40.0°F4.4°C 55% 5.8 mph NNW9.3 kmh NNW 5.8 mph9.3 kmh 30.02 in1016.6 mb - 0.00 in0.0 mm 0.00 in0.0 mm
06:15 PM 55.9°F13.3°C 40.0°F4.4°C 55% 4.6 mph N7.4 kmh N 4.6 mph7.4 kmh 30.02 in1016.6 mb - 0.00 in0.0 mm 0.00 in0.0 mm
06:20 PM 55.9°F13.3°C 40.0°F4.4°C 55% 4.6 mph WNW7.4 kmh WNW 6.9 mph11.1 kmh 30.02 in1016.6 mb - 0.00 in0.0 mm 0.00 in0.0 mm
06:25 PM 53.8°F12.1°C 39.3°F4.1°C 58% 5.8 mph NNE9.3 kmh NNE 4.6 mph7.4 kmh 30.02 in1016.6 mb - 0.00 in0.0 mm 0.00 in0.0 mm
06:30 PM 53.0°F11.7°C 39.0°F3.9°C 59% 4.6 mph NW7.4 kmh NW 4.6 mph7.4 kmh 30.03 in1016.9 mb - 0.00 in0.0 mm 0.00 in0.0 mm
06:35 PM 52.0°F11.1°C 39.0°F3.9°C 61% 5.8 mph NW9.3 kmh NW 6.9 mph11.1 kmh 30.03 in1016.9 mb - 0.00 in0.0 mm 0.00 in0.0 mm
06:40 PM 50.8°F10.4°C 38.6°F3.7°C 63% 5.8 mph WNW9.3 kmh WNW 5.8 mph9.3 kmh 30.04 in1017.3 mb - 0.00 in0.0 mm 0.00 in0.0 mm
06:45 PM 50.7°F10.4°C 38.6°F3.7°C 63% 4.6 mph NNE7.4 kmh NNE 3.5 mph5.6 kmh 30.04 in1017.3 mb - 0.00 in0.0 mm 0.00 in0.0 mm
06:50 PM 50.8°F10.4°C 38.7°F3.7°C 63% 3.5 mph N5.6 kmh N 3.5 mph5.6 kmh 30.04 in1017.3 mb - 0.00 in0.0 mm 0.00 in0.0 mm
06:55 PM 50.2°F10.1°C 38.9°F3.8°C 65% 3.5 mph NW5.6 kmh NW 5.8 mph9.3 kmh 30.04 in1017.3 mb - 0.00 in0.0 mm 0.00 in0.0 mm
07:00 PM 50.7°F10.4°C 39.4°F4.1°C 65% 4.6 mph ENE7.4 kmh ENE 3.5 mph5.6 kmh 30.04 in1017.3 mb - 0.00 in0.0 mm 0.00 in0.0 mm
07:10 PM 50.9°F10.5°C 38.7°F3.7°C 63% 3.5 mph NW5.6 kmh NW 3.5 mph5.6 kmh 30.04 in1017.3 mb - 0.00 in0.0 mm 0.00 in0.0 mm
07:15 PM 51.1°F10.6°C 38.1°F3.4°C 61% 3.5 mph 5.6 kmh 3.5 mph5.6 kmh 30.05 in1017.6 mb - 0.00 in0.0 mm 0.00 in0.0 mm
07:20 PM 51.4°F10.8°C 38.4°F3.6°C 61% 2.3 mph N3.7 kmh N 3.5 mph5.6 kmh 30.04 in1017.3 mb - 0.00 in0.0 mm 0.00 in0.0 mm
07:25 PM 51.4°F10.8°C 38.0°F3.3°C 60% 3.5 mph NW5.6 kmh NW 4.6 mph7.4 kmh 30.05 in1017.6 mb - 0.00 in0.0 mm 0.00 in0.0 mm
07:30 PM 51.4°F10.8°C 38.0°F3.3°C 60% 4.6 mph NE7.4 kmh NE 3.5 mph5.6 kmh 30.05 in1017.6 mb - 0.00 in0.0 mm 0.00 in0.0 mm
07:35 PM 51.8°F11.0°C 37.9°F3.3°C 59% 3.5 mph N5.6 kmh N 4.6 mph7.4 kmh 30.05 in1017.6 mb - 0.00 in0.0 mm 0.00 in0.0 mm
07:40 PM 51.8°F11.0°C 37.9°F3.3°C 59% 3.5 mph NNE5.6 kmh NNE 3.5 mph5.6 kmh 30.04 in1017.3 mb - 0.00 in0.0 mm 0.00 in0.0 mm
07:45 PM 51.4°F10.8°C 37.6°F3.1°C 59% 3.5 mph NNW5.6 kmh NNW 3.5 mph5.6 kmh 30.04 in1017.3 mb - 0.00 in0.0 mm 0.00 in0.0 mm
07:50 PM 51.1°F10.6°C 37.7°F3.2°C 60% 3.5 mph NNE5.6 kmh NNE 4.6 mph7.4 kmh 30.04 in1017.3 mb - 0.00 in0.0 mm 0.00 in0.0 mm
07:55 PM 50.6°F10.3°C 37.2°F2.9°C 60% 3.5 mph NE5.6 kmh NE 4.6 mph7.4 kmh 30.04 in1017.3 mb - 0.00 in0.0 mm 0.00 in0.0 mm
08:00 PM 50.4°F10.2°C 37.4°F3.0°C 61% 3.5 mph NNE5.6 kmh NNE 3.5 mph5.6 kmh 30.05 in1017.6 mb - 0.00 in0.0 mm 0.00 in0.0 mm
08:10 PM 49.8°F9.9°C 36.9°F2.7°C 61% 3.5 mph NNE5.6 kmh NNE 4.6 mph7.4 kmh 30.05 in1017.6 mb - 0.00 in0.0 mm 0.00 in0.0 mm
08:15 PM 49.8°F9.9°C 36.9°F2.7°C 61% 3.5 mph N5.6 kmh N 4.6 mph7.4 kmh 30.05 in1017.6 mb - 0.00 in0.0 mm 0.00 in0.0 mm
08:20 PM 49.8°F9.9°C 36.9°F2.7°C 61% 2.3 mph NW3.7 kmh NW 3.5 mph5.6 kmh 30.06 in1017.9 mb - 0.00 in0.0 mm 0.00 in0.0 mm
08:25 PM 49.7°F9.8°C 36.8°F2.7°C 61% 2.3 mph NW3.7 kmh NW 3.5 mph5.6 kmh 30.06 in1017.9 mb - 0.00 in0.0 mm 0.00 in0.0 mm
08:30 PM 49.6°F9.8°C 36.7°F2.6°C 61% 2.3 mph NNW3.7 kmh NNW 3.5 mph5.6 kmh 30.06 in1017.9 mb - 0.00 in0.0 mm 0.00 in0.0 mm
08:35 PM 49.5°F9.7°C 36.6°F2.6°C 61% 3.5 mph N5.6 kmh N 4.6 mph7.4 kmh 30.07 in1018.3 mb - 0.00 in0.0 mm 0.00 in0.0 mm
08:40 PM 49.5°F9.7°C 36.1°F2.3°C 60% 4.6 mph N7.4 kmh N 4.6 mph7.4 kmh 30.07 in1018.3 mb - 0.00 in0.0 mm 0.00 in0.0 mm
08:45 PM 49.5°F9.7°C 36.1°F2.3°C 60% 4.6 mph NE7.4 kmh NE 8.1 mph13.0 kmh 30.07 in1018.3 mb - 0.00 in0.0 mm 0.00 in0.0 mm
08:50 PM 49.5°F9.7°C 35.7°F2.1°C 59% 4.6 mph NNE7.4 kmh NNE 6.9 mph11.1 kmh 30.07 in1018.3 mb - 0.00 in0.0 mm 0.00 in0.0 mm
08:55 PM 49.3°F9.6°C 35.5°F1.9°C 59% 4.6 mph NE7.4 kmh NE 5.8 mph9.3 kmh 30.07 in1018.3 mb - 0.00 in0.0 mm 0.00 in0.0 mm
09:00 PM 48.9°F9.4°C 35.2°F1.8°C 59% 5.8 mph NNE9.3 kmh NNE 9.2 mph14.8 kmh 30.07 in1018.3 mb - 0.00 in0.0 mm 0.00 in0.0 mm
09:10 PM 48.6°F9.2°C 35.3°F1.8°C 60% 4.6 mph NE7.4 kmh NE 5.8 mph9.3 kmh 30.09 in1019.0 mb - 0.00 in0.0 mm 0.00 in0.0 mm
09:15 PM 48.6°F9.2°C 34.9°F1.6°C 59% 5.8 mph N9.3 kmh N 8.1 mph13.0 kmh 30.10 in1019.3 mb - 0.00 in0.0 mm 0.00 in0.0 mm
09:20 PM 48.6°F9.2°C 34.4°F1.3°C 58% 4.6 mph N7.4 kmh N 3.5 mph5.6 kmh 30.10 in1019.3 mb - 0.00 in0.0 mm 0.00 in0.0 mm
09:25 PM 48.4°F9.1°C 32.9°F0.5°C 55% 6.9 mph 11.1 kmh 10.4 mph16.7 kmh 30.10 in1019.3 mb - 0.00 in0.0 mm 0.00 in0.0 mm
09:30 PM 48.4°F9.1°C 32.9°F0.5°C 55% 9.2 mph NNE14.8 kmh NNE 8.1 mph13.0 kmh 30.11 in1019.6 mb - 0.00 in0.0 mm 0.00 in0.0 mm
09:35 PM 48.1°F8.9°C 32.7°F0.4°C 55% 8.1 mph NNE13.0 kmh NNE 11.5 mph18.5 kmh 30.10 in1019.3 mb - 0.00 in0.0 mm 0.00 in0.0 mm
09:40 PM 47.9°F8.8°C 32.5°F0.3°C 55% 8.1 mph NE13.0 kmh NE 9.2 mph14.8 kmh 30.11 in1019.6 mb - 0.00 in0.0 mm 0.00 in0.0 mm
09:45 PM 47.7°F8.7°C 32.3°F0.2°C 55% 5.8 mph NE9.3 kmh NE 4.6 mph7.4 kmh 30.11 in1019.6 mb - 0.00 in0.0 mm 0.00 in0.0 mm
09:50 PM 47.7°F8.7°C 32.3°F0.2°C 55% 6.9 mph NNE11.1 kmh NNE 6.9 mph11.1 kmh 30.11 in1019.6 mb - 0.00 in0.0 mm 0.00 in0.0 mm
09:55 PM 47.7°F8.7°C 32.3°F0.2°C 55% 6.9 mph ENE11.1 kmh ENE 3.5 mph5.6 kmh 30.11 in1019.6 mb - 0.00 in0.0 mm 0.00 in0.0 mm
10:00 PM 47.3°F8.5°C 31.9°F-0.1°C 55% 6.9 mph NNE11.1 kmh NNE 8.1 mph13.0 kmh 30.11 in1019.6 mb - 0.00 in0.0 mm 0.00 in0.0 mm
10:10 PM 46.9°F8.3°C 32.0°F0.0°C 56% 5.8 mph ENE9.3 kmh ENE 4.6 mph7.4 kmh 30.11 in1019.6 mb - 0.00 in0.0 mm 0.00 in0.0 mm
10:15 PM 46.8°F8.2°C 31.9°F-0.1°C 56% 5.8 mph NNE9.3 kmh NNE 8.1 mph13.0 kmh 30.11 in1019.6 mb - 0.00 in0.0 mm 0.00 in0.0 mm
10:20 PM 46.8°F8.2°C 31.9°F-0.1°C 56% 6.9 mph NE11.1 kmh NE 4.6 mph7.4 kmh 30.11 in1019.6 mb - 0.00 in0.0 mm 0.00 in0.0 mm
10:25 PM 46.6°F8.1°C 32.6°F0.3°C 58% 5.8 mph NNE9.3 kmh NNE 6.9 mph11.1 kmh 30.11 in1019.6 mb - 0.00 in0.0 mm 0.00 in0.0 mm
10:30 PM 46.4°F8.0°C 32.4°F0.2°C 58% 5.8 mph NNE9.3 kmh NNE 8.1 mph13.0 kmh 30.11 in1019.6 mb - 0.00 in0.0 mm 0.00 in0.0 mm
10:35 PM 46.4°F8.0°C 32.8°F0.4°C 59% 5.8 mph NE9.3 kmh NE 4.6 mph7.4 kmh 30.11 in1019.6 mb - 0.00 in0.0 mm 0.00 in0.0 mm
10:40 PM 46.0°F7.8°C 32.5°F0.3°C 59% 4.6 mph NNE7.4 kmh NNE 5.8 mph9.3 kmh 30.11 in1019.6 mb - 0.00 in0.0 mm 0.00 in0.0 mm
10:45 PM 45.9°F7.7°C 32.8°F0.4°C 60% 4.6 mph NNE7.4 kmh NNE 8.1 mph13.0 kmh 30.11 in1019.6 mb - 0.00 in0.0 mm 0.00 in0.0 mm
10:50 PM 45.9°F7.7°C 32.7°F0.4°C 60% 5.8 mph NNE9.3 kmh NNE 6.9 mph11.1 kmh 30.11 in1019.6 mb - 0.00 in0.0 mm 0.00 in0.0 mm
10:55 PM 45.9°F7.7°C 32.7°F0.4°C 60% 4.6 mph NE7.4 kmh NE 9.2 mph14.8 kmh 30.11 in1019.6 mb - 0.00 in0.0 mm 0.00 in0.0 mm
11:00 PM 45.9°F7.7°C 32.7°F0.4°C 60% 5.8 mph ENE9.3 kmh ENE 6.9 mph11.1 kmh 30.12 in1020.0 mb - 0.00 in0.0 mm 0.00 in0.0 mm
11:10 PM 45.9°F7.7°C 33.2°F0.7°C 61% 4.6 mph NE7.4 kmh NE 4.6 mph7.4 kmh 30.13 in1020.3 mb - 0.00 in0.0 mm 0.00 in0.0 mm
11:15 PM 45.9°F7.7°C 33.2°F0.7°C 61% 4.6 mph ENE7.4 kmh ENE 5.8 mph9.3 kmh 30.12 in1020.0 mb - 0.00 in0.0 mm 0.00 in0.0 mm
11:20 PM 45.9°F7.7°C 33.2°F0.7°C 61% 3.5 mph NE5.6 kmh NE 3.5 mph5.6 kmh 30.13 in1020.3 mb - 0.00 in0.0 mm 0.00 in0.0 mm
11:25 PM 45.9°F7.7°C 33.2°F0.7°C 61% 4.6 mph ENE7.4 kmh ENE 3.5 mph5.6 kmh 30.12 in1020.0 mb - 0.00 in0.0 mm 0.00 in0.0 mm
11:30 PM 45.9°F7.7°C 33.2°F0.7°C 61% 4.6 mph NNE7.4 kmh NNE 4.6 mph7.4 kmh 30.13 in1020.3 mb - 0.00 in0.0 mm 0.00 in0.0 mm
11:35 PM 45.7°F7.6°C 33.0°F0.6°C 61% 4.6 mph NE7.4 kmh NE 8.1 mph13.0 kmh 30.13 in1020.3 mb - 0.00 in0.0 mm 0.00 in0.0 mm
11:40 PM 45.6°F7.6°C 33.0°F0.6°C 61% 3.5 mph N5.6 kmh N 4.6 mph7.4 kmh 30.13 in1020.3 mb - 0.00 in0.0 mm 0.00 in0.0 mm
11:45 PM 45.4°F7.4°C 33.5°F0.8°C 63% 3.5 mph NNW5.6 kmh NNW 4.6 mph7.4 kmh 30.13 in1020.3 mb - 0.00 in0.0 mm 0.00 in0.0 mm
11:50 PM 45.0°F7.2°C 33.9°F1.1°C 65% 4.6 mph NNE7.4 kmh NNE 4.6 mph7.4 kmh 30.13 in1020.3 mb - 0.00 in0.0 mm 0.00 in0.0 mm
11:55 PM 44.8°F7.1°C 33.7°F0.9°C 65% 3.5 mph NNE5.6 kmh NNE 4.6 mph7.4 kmh 30.13 in1020.3 mb - 0.00 in0.0 mm 0.00 in0.0 mm